EDT,Max TemperatureF,Mean TemperatureF,Min TemperatureF,Max Dew PointF,MeanDew PointF,Min DewpointF,Max Humidity, Mean Humidity, Min Humidity, Max Sea Level PressureIn, Mean Sea Level PressureIn, Min Sea Level PressureIn, Max VisibilityMiles, Mean VisibilityMiles, Min VisibilityMiles, Max Wind SpeedMPH, Mean Wind SpeedMPH, Max Gust SpeedMPH,PrecipitationIn, CloudCover, Events, WindDirDegrees
2011-10-1,62,56,51,61,57,50,94,90,82,29.79,29.68,29.64,10,7,2,17,4,23,0.23,8,,25
2011-10-2,57,54,51,55,52,48,94,91,82,29.91,29.87,29.82,10,6,1,17,11,24,0.42,8,,55
2011-10-3,60,58,55,55,54,52,94,89,72,30.06,30.01,29.92,10,10,3,12,5,,0.08,8,,71
2011-10-4,60,55,50,54,51,48,94,86,72,30.06,29.98,29.91,10,10,5,10,3,,0.03,8,,7
2011-10-5,59,55,51,52,40,27,88,59,38,30.14,29.97,29.89,10,10,5,21,9,31,0.00,5,,306
2011-10-6,55,47,39,30,24,21,65,41,26,30.28,30.22,30.17,10,10,10,15,8,24,0.00,0,,263
2011-10-7,62,48,33,43,33,28,87,60,27,30.43,30.38,30.34,10,10,10,12,2,,0.00,1,,235
2011-10-8,78,63,48,55,47,41,82,59,34,30.41,30.36,30.32,10,10,10,12,8,,0.00,0,,245
2011-10-9,82,66,50,54,48,43,94,62,25,30.33,30.30,30.21,10,10,7,13,5,22,0.00,0,,257
2011-10-10,78,63,48,54,51,46,94,66,39,30.21,30.16,30.09,10,10,2,14,4,23,0.00,0,,274
2011-10-11,66,55,44,50,45,41,93,72,40,30.26,30.21,30.16,10,10,3,8,1,,0.00,0,,54
2011-10-12,57,50,44,48,44,43,93,78,59,30.27,30.22,30.16,10,9,0,12,3,17,0.00,4,,81
2011-10-13,57,54,51,54,51,48,94,87,82,30.11,29.94,29.81,10,7,2,16,9,22,0.04,8,,53
2011-10-14,60,58,57,59,56,54,94,91,88,29.80,29.67,29.42,10,8,2,15,9,20,0.24,8,,60
2011-10-15,62,56,51,59,45,37,88,67,42,29.48,29.40,29.22,10,10,7,22,14,40,0.10,7,,208
2011-10-16,59,54,50,43,37,34,76,54,41,29.70,29.65,29.57,10,10,10,23,16,32,0.00,6,,238
2011-10-17,57,50,44,45,36,30,76,54,36,29.64,29.59,29.52,10,10,10,23,10,30,0.00,5,,225
2011-10-18,60,53,46,43,37,36,82,58,42,29.90,29.77,29.66,10,10,10,17,8,21,0.00,2,,233
2011-10-19,53,48,42,46,43,39,93,82,67,30.02,29.95,29.84,10,10,5,21,4,28,0.11,6,,44
2011-10-20,51,51,51,48,48,48,88,88,88,29.67,29.67,29.67,10,10,9,15,15,28,0.00,8,,53
2011-10-21,,,,,,,,,,,,,,,,,,,,,,
2011-10-22,,,,,,,,,,,,,,,,,,,,,,
2011-10-23,,,,,,,,,,,,,,,,,,,,,,
2011-10-24,,,,,,,,,,,,,,,,,,,,,,
2011-10-25,51,48,42,32,29,28,61,50,43,29.93,29.91,29.86,10,10,10,15,10,24,0.00,0,,282
2011-10-26,46,42,37,39,34,30,87,73,61,29.95,29.86,29.76,10,10,10,12,5,,0.00,5,,226
2011-10-27,42,38,33,39,35,30,93,87,81,29.79,29.75,29.70,10,9,4,12,2,16,0.15,8,,5
2011-10-28,44,37,30,28,24,18,81,62,34,30.18,30.04,29.86,10,10,10,18,6,24,0.00,2,,276
2011-10-29,37,32,26,28,25,21,93,74,52,30.25,30.17,30.01,10,9,1,16,3,23,0.02,3,,54
2011-10-30,42,38,33,30,28,25,87,73,49,30.16,29.95,29.79,10,8,0,21,9,34,0.18,5,,314
2011-10-31,48,37,26,32,27,25,93,71,43,30.36,30.32,30.24,10,10,4,8,3,,0.00,0,,240